createdAt,value
2018-11-07T00:00:00.276Z,13.60
2018-11-07T00:02:34.099Z,13.60
2018-11-07T00:05:06.637Z,13.50
2018-11-07T00:07:39.048Z,13.40
2018-11-07T00:10:11.423Z,13.40
2018-11-07T00:12:43.910Z,13.30
2018-11-07T00:15:17.472Z,13.30
2018-11-07T00:17:49.785Z,13.20
2018-11-07T00:20:23.275Z,13.10
2018-11-07T00:22:55.675Z,13.10
2018-11-07T00:25:28.359Z,13.10
2018-11-07T00:28:00.822Z,13.00
2018-11-07T00:30:39.415Z,13.00
2018-11-07T00:33:11.656Z,13.00
2018-11-07T00:35:44.086Z,13.00
2018-11-07T00:38:16.572Z,13.00
2018-11-07T00:40:49.557Z,12.90
2018-11-07T00:43:22.444Z,12.90
2018-11-07T00:45:55.115Z,12.80
2018-11-07T00:48:28.487Z,12.70
2018-11-07T00:51:00.906Z,12.70
2018-11-07T00:53:33.146Z,12.50
2018-11-07T00:56:05.875Z,12.40
2018-11-07T00:58:38.648Z,12.40
2018-11-07T01:01:11.415Z,12.40
2018-11-07T01:03:43.978Z,12.20
2018-11-07T01:06:16.601Z,12.10
2018-11-07T01:08:50.594Z,12.10
2018-11-07T01:11:23.717Z,12.00
2018-11-07T01:14:00.121Z,12.00
2018-11-07T01:16:32.459Z,11.80
2018-11-07T01:19:05.013Z,11.80
2018-11-07T01:21:51.366Z,11.80
2018-11-07T01:24:26.816Z,11.80
2018-11-07T01:27:04.098Z,11.60
2018-11-07T01:29:38.197Z,11.50
2018-11-07T01:32:12.429Z,11.40
2018-11-07T01:34:45.470Z,11.30
2018-11-07T01:37:19.488Z,11.20
2018-11-07T01:39:53.537Z,11.10
2018-11-07T01:42:28.361Z,11.20
2018-11-07T01:47:46.872Z,11.00
2018-11-07T01:50:22.096Z,11.00
2018-11-07T01:55:36.537Z,10.90
2018-11-07T02:00:51.786Z,10.70
2018-11-07T02:06:02.732Z,10.70
2018-11-07T02:08:39.529Z,10.70
2018-11-07T02:11:13.297Z,10.90
2018-11-07T02:13:49.193Z,10.50
2018-11-07T02:16:23.003Z,10.60
2018-11-07T02:21:36.807Z,10.50
2018-11-07T02:24:10.849Z,10.60
2018-11-07T02:26:47.217Z,10.60
2018-11-07T02:29:19.938Z,10.50
2018-11-07T02:31:53.957Z,10.40
2018-11-07T02:34:28.378Z,10.30
2018-11-07T02:37:03.715Z,10.20
2018-11-07T02:39:37.526Z,10.10
2018-11-07T02:42:11.336Z,10.20
2018-11-07T02:44:45.617Z,10.20
2018-11-07T02:49:57.611Z,9.90
2018-11-07T02:52:34.512Z,9.80
2018-11-07T02:55:07.817Z,9.90
2018-11-07T02:57:40.739Z,9.90
2018-11-07T03:00:15.479Z,9.80
2018-11-07T03:02:49.846Z,9.80
2018-11-07T03:05:24.103Z,9.70
2018-11-07T03:07:57.057Z,9.80
2018-11-07T03:10:30.743Z,9.80
2018-11-07T03:13:03.252Z,9.70
2018-11-07T03:15:36.224Z,9.70
2018-11-07T03:18:09.558Z,9.70
2018-11-07T03:20:42.872Z,9.60
2018-11-07T03:23:16.451Z,9.70
2018-11-07T03:25:49.495Z,9.70
2018-11-07T03:28:22.777Z,9.60
2018-11-07T03:30:55.138Z,9.60
2018-11-07T03:33:27.331Z,9.70
2018-11-07T03:36:00.927Z,9.60
2018-11-07T03:38:34.211Z,9.60
2018-11-07T03:41:08.126Z,9.60
2018-11-07T03:43:41.069Z,9.40
2018-11-07T03:46:14.071Z,9.30
2018-11-07T03:48:46.650Z,9.30
2018-11-07T03:51:19.711Z,9.30
2018-11-07T03:53:52.567Z,9.10
2018-11-07T03:56:26.971Z,9.10
2018-11-07T03:59:00.019Z,9.00
2018-11-07T04:01:32.944Z,8.90
2018-11-07T04:04:06.543Z,8.80
2018-11-07T04:06:39.818Z,8.50
2018-11-07T04:09:14.295Z,8.60
2018-11-07T04:11:47.660Z,8.40
2018-11-07T04:14:20.551Z,8.40
2018-11-07T04:16:52.731Z,8.50
2018-11-07T04:19:25.077Z,8.20
2018-11-07T04:21:57.498Z,8.10
2018-11-07T04:24:30.234Z,8.10
2018-11-07T04:27:03.211Z,8.00
2018-11-07T04:29:36.244Z,8.00
2018-11-07T04:32:09.538Z,7.80
2018-11-07T04:34:42.450Z,7.60
2018-11-07T04:37:15.367Z,7.70
2018-11-07T04:39:47.940Z,7.80
2018-11-07T04:42:21.071Z,7.60
2018-11-07T04:44:53.938Z,7.60
2018-11-07T04:47:27.245Z,7.70
2018-11-07T04:49:59.976Z,7.50
2018-11-07T04:52:32.975Z,7.30
2018-11-07T04:55:05.946Z,7.40
2018-11-07T04:57:38.578Z,7.40
2018-11-07T05:00:13.588Z,7.40
2018-11-07T05:02:45.832Z,7.50
2018-11-07T05:05:18.396Z,7.40
2018-11-07T05:07:51.159Z,7.20
2018-11-07T05:10:24.250Z,7.30
2018-11-07T05:12:56.918Z,7.10
2018-11-07T05:15:30.461Z,7.20
2018-11-07T05:18:03.433Z,7.40
2018-11-07T05:20:36.870Z,7.00
2018-11-07T05:23:09.781Z,6.90
2018-11-07T05:25:42.008Z,6.90
2018-11-07T05:28:15.018Z,6.70
2018-11-07T05:30:47.946Z,7.00
2018-11-07T05:33:20.686Z,6.80
2018-11-07T05:35:53.573Z,7.00
2018-11-07T05:38:26.469Z,7.00
2018-11-07T05:40:59.572Z,6.80
2018-11-07T05:43:31.901Z,6.60
2018-11-07T05:46:04.130Z,6.60
2018-11-07T05:48:37.908Z,6.50
2018-11-07T05:51:10.589Z,6.50
2018-11-07T05:53:43.970Z,6.40
2018-11-07T05:56:17.000Z,6.40
2018-11-07T05:58:49.906Z,6.20
2018-11-07T06:01:22.857Z,6.40
2018-11-07T06:03:55.833Z,6.20
2018-11-07T06:06:29.043Z,6.20
2018-11-07T06:09:02.028Z,6.10
2018-11-07T06:11:34.728Z,6.20
2018-11-07T06:14:08.350Z,6.40
2018-11-07T06:16:41.724Z,6.10
2018-11-07T06:19:14.588Z,6.10
2018-11-07T06:21:47.613Z,6.10
2018-11-07T06:24:20.550Z,6.30
2018-11-07T06:26:53.512Z,6.00
2018-11-07T06:29:26.277Z,6.10
2018-11-07T06:31:59.025Z,6.10
2018-11-07T06:34:32.035Z,6.10
2018-11-07T06:37:05.292Z,6.10
2018-11-07T06:39:38.494Z,6.00
2018-11-07T06:42:11.616Z,6.10
2018-11-07T06:44:45.315Z,6.10
2018-11-07T06:47:18.222Z,6.10
2018-11-07T06:49:50.930Z,6.00
2018-11-07T06:52:23.681Z,6.10
2018-11-07T06:54:56.817Z,6.10
2018-11-07T06:57:29.839Z,5.80
2018-11-07T07:00:02.861Z,6.00
2018-11-07T07:02:35.485Z,6.40
2018-11-07T07:05:09.200Z,6.30
2018-11-07T07:07:42.446Z,6.00
2018-11-07T07:10:18.038Z,6.10
2018-11-07T07:12:50.566Z,6.30
2018-11-07T07:15:23.214Z,6.10
2018-11-07T07:17:55.849Z,6.30
2018-11-07T07:20:28.610Z,6.10
2018-11-07T07:23:01.207Z,6.30
2018-11-07T07:28:12.827Z,6.40
2018-11-07T07:30:45.463Z,6.40
2018-11-07T07:33:18.824Z,6.70
2018-11-07T07:35:51.930Z,6.60
2018-11-07T07:38:24.637Z,6.80
2018-11-07T07:40:57.734Z,7.00
2018-11-07T07:43:30.507Z,7.00
2018-11-07T07:46:03.512Z,7.00
2018-11-07T07:48:36.742Z,7.00
2018-11-07T07:51:10.276Z,7.10
2018-11-07T07:53:43.214Z,7.30
2018-11-07T07:56:16.020Z,6.80
2018-11-07T07:58:48.379Z,7.20
2018-11-07T08:01:21.647Z,6.90
2018-11-07T08:03:54.934Z,7.00
2018-11-07T08:06:27.854Z,7.10
2018-11-07T08:09:00.945Z,7.30
2018-11-07T08:11:34.124Z,7.30
2018-11-07T08:14:07.497Z,7.20
2018-11-07T08:16:40.403Z,7.30
2018-11-07T08:19:13.188Z,7.00
2018-11-07T08:21:47.175Z,7.30
2018-11-07T08:24:20.091Z,7.10
2018-11-07T08:26:52.754Z,7.30
2018-11-07T08:29:25.643Z,7.40
2018-11-07T08:31:58.319Z,7.40
2018-11-07T08:34:31.469Z,7.30
2018-11-07T08:37:04.144Z,7.40
2018-11-07T08:39:36.788Z,7.10
2018-11-07T08:42:09.463Z,7.60
2018-11-07T08:44:42.417Z,7.50
2018-11-07T08:47:14.945Z,7.70
2018-11-07T08:49:47.821Z,7.70
2018-11-07T08:52:21.183Z,7.60
2018-11-07T08:54:54.135Z,7.60
2018-11-07T08:57:26.399Z,7.50
2018-11-07T08:59:59.098Z,8.00
2018-11-07T09:02:32.205Z,8.00
2018-11-07T09:05:04.864Z,7.60
2018-11-07T09:07:37.745Z,8.00
2018-11-07T09:10:12.462Z,7.70
2018-11-07T09:12:45.133Z,7.80
2018-11-07T09:15:20.299Z,7.90
2018-11-07T09:17:52.935Z,7.80
2018-11-07T09:20:26.378Z,8.00
2018-11-07T09:22:59.727Z,7.90
2018-11-07T09:25:33.742Z,8.10
2018-11-07T09:28:06.522Z,8.00
2018-11-07T09:30:39.203Z,7.90
2018-11-07T09:33:11.652Z,7.90
2018-11-07T09:35:44.271Z,8.00
2018-11-07T09:38:16.643Z,7.80
2018-11-07T09:40:48.885Z,8.00
2018-11-07T09:43:21.496Z,7.90
2018-11-07T09:45:55.586Z,7.80
2018-11-07T09:48:28.063Z,8.00
2018-11-07T09:51:00.749Z,8.10
2018-11-07T09:53:33.549Z,8.00
2018-11-07T09:56:05.987Z,8.00
2018-11-07T09:58:38.241Z,8.00
2018-11-07T10:01:10.825Z,8.00
2018-11-07T10:03:43.385Z,7.80
2018-11-07T10:06:15.591Z,7.70
2018-11-07T10:08:48.307Z,7.90
2018-11-07T10:11:20.637Z,7.90
2018-11-07T10:13:52.715Z,7.90
2018-11-07T10:16:25.829Z,8.00
2018-11-07T10:18:58.090Z,8.00
2018-11-07T10:21:30.494Z,7.60
2018-11-07T10:24:03.107Z,7.60
2018-11-07T10:26:35.910Z,7.60
2018-11-07T10:29:08.513Z,7.60
2018-11-07T10:31:41.059Z,7.90
2018-11-07T10:34:13.605Z,7.50
2018-11-07T10:36:46.311Z,7.60
2018-11-07T10:39:18.695Z,7.60
2018-11-07T10:41:51.590Z,7.60
2018-11-07T10:44:24.157Z,7.10
2018-11-07T10:46:56.509Z,7.20
2018-11-07T10:49:29.369Z,7.40
2018-11-07T10:52:01.902Z,7.40
2018-11-07T10:54:34.685Z,7.30
2018-11-07T10:57:07.148Z,7.40
2018-11-07T10:59:40.262Z,7.30
2018-11-07T11:02:17.520Z,7.70
2018-11-07T11:04:49.950Z,7.60
2018-11-07T11:07:23.022Z,7.70
2018-11-07T11:09:55.165Z,7.60
2018-11-07T11:12:27.962Z,7.90
2018-11-07T11:15:00.389Z,7.60
2018-11-07T11:17:33.077Z,7.60
2018-11-07T11:20:05.518Z,7.70
2018-11-07T11:22:37.858Z,7.70
2018-11-07T11:25:10.314Z,8.00
2018-11-07T11:27:42.900Z,7.90
2018-11-07T11:30:15.561Z,7.70
2018-11-07T11:32:48.291Z,8.00
2018-11-07T11:35:20.474Z,7.80
2018-11-07T11:37:53.059Z,7.80
2018-11-07T11:40:25.580Z,8.10
2018-11-07T11:42:58.331Z,7.80
2018-11-07T11:45:31.172Z,7.90
2018-11-07T11:48:03.956Z,8.00
2018-11-07T11:50:36.338Z,8.00
2018-11-07T11:53:09.449Z,7.80
2018-11-07T11:55:42.232Z,7.90
2018-11-07T11:58:14.890Z,7.80
2018-11-07T12:00:47.628Z,7.80
2018-11-07T12:03:20.153Z,8.00
2018-11-07T12:05:52.501Z,7.80
2018-11-07T12:08:25.208Z,8.00
2018-11-07T12:10:58.943Z,8.00
2018-11-07T12:13:31.844Z,7.90
2018-11-07T12:16:04.487Z,8.10
2018-11-07T12:18:37.118Z,7.80
2018-11-07T12:21:09.586Z,8.00
2018-11-07T12:23:42.192Z,8.00
2018-11-07T12:26:14.194Z,7.80
2018-11-07T12:28:46.962Z,7.90
2018-11-07T12:31:19.674Z,8.00
2018-11-07T12:33:52.083Z,7.90
2018-11-07T12:36:24.513Z,8.10
2018-11-07T12:38:57.373Z,8.00
2018-11-07T12:41:30.140Z,8.10
2018-11-07T12:44:02.494Z,7.90
2018-11-07T12:46:35.419Z,8.10
2018-11-07T12:49:08.472Z,8.00
2018-11-07T12:51:41.226Z,7.90
2018-11-07T12:54:13.627Z,8.10
2018-11-07T12:56:46.296Z,8.00
2018-11-07T12:59:19.121Z,8.00
2018-11-07T13:01:51.767Z,8.10
2018-11-07T13:04:24.389Z,7.90
2018-11-07T13:06:57.107Z,8.00
2018-11-07T13:09:29.998Z,8.10
2018-11-07T13:12:02.394Z,8.10
2018-11-07T13:14:35.218Z,8.00
2018-11-07T13:17:07.780Z,8.30
2018-11-07T13:19:40.501Z,8.00
2018-11-07T13:22:12.993Z,8.10
2018-11-07T13:24:45.523Z,7.90
2018-11-07T13:27:18.173Z,8.00
2018-11-07T13:29:52.055Z,8.10
2018-11-07T13:32:24.410Z,7.90
2018-11-07T13:34:56.884Z,7.90
2018-11-07T13:37:29.874Z,7.90
2018-11-07T13:40:02.585Z,7.80
2018-11-07T13:42:34.997Z,7.90
2018-11-07T13:45:09.004Z,7.90
2018-11-07T13:47:42.623Z,8.10
2018-11-07T13:50:16.572Z,8.00
2018-11-07T13:52:49.232Z,8.00
2018-11-07T13:55:22.104Z,8.00
2018-11-07T13:57:54.823Z,8.00
2018-11-07T14:00:27.410Z,8.00
2018-11-07T14:02:59.860Z,8.00
2018-11-07T14:05:32.654Z,8.00
2018-11-07T14:08:05.520Z,7.50
2018-11-07T14:10:38.146Z,8.00
2018-11-07T14:13:10.433Z,8.00
2018-11-07T14:15:43.532Z,8.00
2018-11-07T14:18:15.934Z,7.60
2018-11-07T14:20:48.323Z,7.80
2018-11-07T14:23:21.073Z,8.00
2018-11-07T14:25:53.675Z,7.60
2018-11-07T14:28:26.169Z,7.70
2018-11-07T14:30:58.719Z,7.70
2018-11-07T14:33:31.592Z,7.40
2018-11-07T14:36:04.202Z,7.60
2018-11-07T14:38:36.898Z,7.70
2018-11-07T14:41:09.370Z,7.80
2018-11-07T14:43:41.933Z,7.50
2018-11-07T14:46:15.013Z,7.70
2018-11-07T14:48:47.773Z,7.70
2018-11-07T14:51:22.369Z,7.80
2018-11-07T14:53:54.848Z,7.70
2018-11-07T14:56:28.474Z,7.50
2018-11-07T14:59:01.121Z,7.70
2018-11-07T15:01:33.740Z,7.50
2018-11-07T15:04:06.100Z,7.70
2018-11-07T15:06:38.323Z,7.50
2018-11-07T15:09:12.153Z,7.50
2018-11-07T15:11:44.811Z,7.60
2018-11-07T15:14:17.600Z,7.60
2018-11-07T15:16:50.021Z,7.70
2018-11-07T15:19:22.141Z,7.70
2018-11-07T15:21:54.821Z,7.60
2018-11-07T15:24:28.290Z,7.70
2018-11-07T15:27:01.120Z,7.60
2018-11-07T15:29:34.365Z,7.60
2018-11-07T15:32:09.860Z,7.50
2018-11-07T15:34:42.845Z,7.40
2018-11-07T15:37:15.273Z,7.70
2018-11-07T15:39:48.971Z,7.10
2018-11-07T15:42:21.299Z,7.60
2018-11-07T15:44:53.705Z,7.30
2018-11-07T15:47:26.686Z,7.40
2018-11-07T15:50:03.816Z,7.20
2018-11-07T15:52:36.372Z,7.10
2018-11-07T15:55:09.792Z,7.10
2018-11-07T15:57:42.676Z,7.40
2018-11-07T16:00:17.239Z,7.00
2018-11-07T16:02:50.016Z,7.00
2018-11-07T16:05:22.373Z,6.80
2018-11-07T16:07:54.868Z,6.80
2018-11-07T16:10:27.521Z,6.90
2018-11-07T16:13:00.662Z,6.90
2018-11-07T16:15:32.991Z,6.90
2018-11-07T16:18:05.859Z,7.00
2018-11-07T16:20:38.070Z,6.70
2018-11-07T16:23:10.839Z,6.90
2018-11-07T16:25:43.576Z,6.40
2018-11-07T16:28:16.261Z,6.70
2018-11-07T16:30:50.085Z,6.70
2018-11-07T16:33:22.677Z,7.00
2018-11-07T16:35:55.449Z,7.00
2018-11-07T16:38:29.063Z,6.80
2018-11-07T16:41:01.812Z,6.90
2018-11-07T16:43:34.729Z,6.80
2018-11-07T16:46:07.081Z,7.30
2018-11-07T16:48:41.504Z,6.80
2018-11-07T16:51:14.072Z,7.30
2018-11-07T16:53:46.444Z,7.10
2018-11-07T16:56:19.410Z,7.00
2018-11-07T16:58:52.080Z,7.00
2018-11-07T17:01:24.490Z,7.30
2018-11-07T17:03:56.818Z,7.30
2018-11-07T17:06:29.148Z,7.30
2018-11-07T17:09:02.088Z,7.20
2018-11-07T17:11:35.054Z,7.20
2018-11-07T17:14:07.701Z,7.20
2018-11-07T17:16:40.115Z,7.10
2018-11-07T17:19:13.399Z,7.50
2018-11-07T17:21:45.755Z,7.70
2018-11-07T17:24:18.860Z,7.60
2018-11-07T17:26:51.480Z,7.40
2018-11-07T17:29:24.680Z,7.50
2018-11-07T17:31:57.357Z,7.70
2018-11-07T17:34:30.006Z,7.70
2018-11-07T17:37:02.529Z,7.60
2018-11-07T17:39:35.226Z,7.70
2018-11-07T17:42:07.749Z,8.10
2018-11-07T17:44:40.499Z,8.00
2018-11-07T17:47:12.862Z,8.00
2018-11-07T17:49:45.474Z,8.00
2018-11-07T17:52:18.570Z,8.10
2018-11-07T17:54:51.388Z,8.10
2018-11-07T17:57:24.435Z,8.40
2018-11-07T17:59:57.064Z,8.10
2018-11-07T18:02:30.123Z,8.40
2018-11-07T18:05:02.969Z,8.30
2018-11-07T18:07:35.437Z,8.30
2018-11-07T18:10:08.756Z,8.40
2018-11-07T18:12:40.977Z,8.40
2018-11-07T18:15:14.192Z,8.40
2018-11-07T18:17:46.898Z,8.50
2018-11-07T18:20:20.809Z,8.40
2018-11-07T18:22:53.334Z,8.80
2018-11-07T18:25:26.697Z,8.70
2018-11-07T18:27:59.861Z,9.30
2018-11-07T18:30:32.302Z,9.10
2018-11-07T18:33:04.964Z,9.40
2018-11-07T18:35:37.584Z,9.50
2018-11-07T18:38:10.806Z,9.70
2018-11-07T18:40:43.416Z,9.90
2018-11-07T18:43:16.156Z,10.00
2018-11-07T18:45:48.927Z,10.10
2018-11-07T18:48:21.531Z,10.20
2018-11-07T18:50:54.255Z,10.30
2018-11-07T18:53:26.887Z,10.40
2018-11-07T18:55:59.709Z,10.70
2018-11-07T18:58:32.862Z,10.50
2018-11-07T19:01:06.596Z,10.40
2018-11-07T19:03:39.032Z,10.60
2018-11-07T19:06:11.638Z,10.60
2018-11-07T19:08:44.748Z,10.60
2018-11-07T19:11:19.290Z,10.50
2018-11-07T19:13:53.228Z,10.50
2018-11-07T19:16:26.839Z,10.60
2018-11-07T19:18:59.467Z,10.70
2018-11-07T19:21:33.093Z,11.00
2018-11-07T19:24:06.433Z,10.60
2018-11-07T19:26:38.899Z,10.50
2018-11-07T19:29:11.973Z,10.70
2018-11-07T19:31:45.067Z,10.50
2018-11-07T19:34:17.824Z,10.50
2018-11-07T19:36:50.483Z,10.50
2018-11-07T19:39:23.524Z,10.50
2018-11-07T19:41:56.125Z,10.60
2018-11-07T19:44:28.557Z,10.60
2018-11-07T19:47:01.183Z,10.30
2018-11-07T19:49:33.528Z,10.30
2018-11-07T19:52:07.091Z,10.30
2018-11-07T19:54:39.922Z,10.30
2018-11-07T19:57:12.678Z,10.40
2018-11-07T19:59:45.293Z,10.50
2018-11-07T20:02:17.737Z,10.60
2018-11-07T20:04:50.434Z,10.70
2018-11-07T20:07:22.905Z,10.70
2018-11-07T20:09:55.670Z,10.80
2018-11-07T20:12:28.659Z,10.80
2018-11-07T20:15:01.223Z,10.80
2018-11-07T20:17:34.357Z,10.90
2018-11-07T20:20:06.937Z,11.00
2018-11-07T20:22:40.746Z,11.00
2018-11-07T20:25:14.142Z,11.10
2018-11-07T20:27:46.927Z,11.20
2018-11-07T20:30:20.640Z,11.20
2018-11-07T20:32:53.360Z,11.20
2018-11-07T20:35:25.884Z,11.10
2018-11-07T20:37:59.487Z,11.00
2018-11-07T20:40:31.903Z,11.00
2018-11-07T20:43:04.491Z,10.90
2018-11-07T20:45:37.723Z,10.60
2018-11-07T20:48:12.082Z,10.60
2018-11-07T20:50:45.252Z,10.60
2018-11-07T20:53:18.001Z,10.60
2018-11-07T20:55:51.510Z,10.60
2018-11-07T20:58:24.700Z,10.70
2018-11-07T21:00:57.571Z,10.70
2018-11-07T21:03:30.012Z,10.50
2018-11-07T21:06:03.407Z,10.50
2018-11-07T21:08:36.583Z,10.60
2018-11-07T21:11:08.912Z,10.50
2018-11-07T21:13:41.592Z,10.40
2018-11-07T21:16:15.136Z,10.40
2018-11-07T21:18:48.221Z,10.40
2018-11-07T21:21:21.396Z,10.60
2018-11-07T21:23:53.934Z,10.50
2018-11-07T21:26:27.692Z,10.60
2018-11-07T21:29:00.981Z,11.00
2018-11-07T21:31:33.630Z,10.70
2018-11-07T21:34:09.639Z,10.90
2018-11-07T21:36:42.021Z,10.70
2018-11-07T21:39:16.603Z,10.60
2018-11-07T21:41:50.709Z,10.60
2018-11-07T21:44:23.732Z,10.60
2018-11-07T21:46:56.656Z,10.50
2018-11-07T21:49:30.500Z,10.60
2018-11-07T21:52:03.182Z,10.60
2018-11-07T21:54:35.715Z,10.70
2018-11-07T21:57:09.950Z,10.80
2018-11-07T21:59:43.122Z,10.80
2018-11-07T22:02:23.605Z,10.90
2018-11-07T22:04:57.041Z,10.80
2018-11-07T22:07:29.878Z,10.80
2018-11-07T22:10:02.507Z,10.90
2018-11-07T22:12:36.677Z,10.90
2018-11-07T22:15:11.361Z,11.00
2018-11-07T22:17:43.472Z,11.30
2018-11-07T22:20:17.051Z,11.10
2018-11-07T22:22:49.468Z,11.00
2018-11-07T22:25:22.650Z,10.90
2018-11-07T22:27:55.484Z,10.80
2018-11-07T22:30:28.836Z,10.60
2018-11-07T22:33:01.245Z,10.40
2018-11-07T22:35:33.695Z,10.30
2018-11-07T22:38:06.101Z,10.20
2018-11-07T22:40:38.809Z,10.10
2018-11-07T22:43:11.483Z,10.00
2018-11-07T22:45:43.938Z,9.80
2018-11-07T22:48:18.142Z,9.80
2018-11-07T22:50:50.802Z,9.70
2018-11-07T22:53:23.149Z,9.70
2018-11-07T22:55:55.656Z,9.60
2018-11-07T22:58:28.176Z,9.60
2018-11-07T23:01:05.240Z,9.30
2018-11-07T23:03:39.778Z,9.60
2018-11-07T23:06:12.124Z,9.40
2018-11-07T23:08:45.408Z,9.30
2018-11-07T23:11:18.661Z,9.40
2018-11-07T23:13:52.796Z,9.30
2018-11-07T23:16:26.381Z,9.30
2018-11-07T23:18:59.178Z,9.20
2018-11-07T23:21:31.587Z,9.30
2018-11-07T23:24:04.354Z,9.20
2018-11-07T23:26:36.743Z,9.10
2018-11-07T23:29:09.777Z,9.30
2018-11-07T23:31:43.204Z,9.10
2018-11-07T23:34:16.364Z,9.00
2018-11-07T23:36:49.861Z,9.20
2018-11-07T23:39:23.329Z,9.00
2018-11-07T23:41:56.204Z,9.00
2018-11-07T23:44:31.254Z,9.00
2018-11-07T23:47:08.940Z,9.00
2018-11-07T23:49:43.620Z,8.80
2018-11-07T23:52:20.661Z,8.90
2018-11-07T23:54:54.608Z,8.90
2018-11-07T23:57:28.240Z,8.80
